Flight Track Log - Related Links

Times and Time Zones

All times are in EDT time to prevent confusion due to time zone crossing. See the SWA1173 flight status page for this flight to view local times or setup timezone preferences in your user account.

Time Position Orientation Groundspeed Altitude Reporting Facility
EDT Latitude Longitude Course Direction KTS MPH feet Rate Location/Type
Fri 10:35:39 AM 35.8583 -78.8058 231° Southwest 152 175 1,100  Level Washington Center
Fri 10:36:21 AM 35.8367 -78.8383 302° West 179 206 2,900 2,743 Climbing Washington Center
Fri 10:37:24 AM 35.8683 -78.9011 326° Northwest 247 284 5,900 3,076 Climbing Washington Center
Fri 10:38:59 AM 35.9661 -78.9822 35° Northeast 297 342 11,000 2,361 Climbing Washington Center
Fri 10:39:59 AM 36.0453 -78.9136 37° Northeast 284 327 12,000 2,033 Climbing Washington Center
Fri 10:41:00 AM 36.1353 -78.8300 34° Northeast 340 391 15,100 2,557 Climbing Washington Center
Fri 10:42:01 AM 36.2292 -78.7514 32° Northeast 393 452 17,200 2,571 Climbing Washington Center
Fri 10:42:59 AM 36.3314 -78.6706 33° Northeast 416 479 20,200 2,773 Climbing Washington Center
Fri 10:44:00 AM 36.4336 -78.5894 32° Northeast 431 496 22,700 2,557 Climbing Washington Center
Fri 10:45:01 AM 36.5400 -78.5056 31° Northeast 443 510 25,400 2,132 Climbing Washington Center
Fri 10:46:01 AM 36.6442 -78.4267 35° Northeast 448 516 27,000 1,250 Climbing Washington Center
Fri 10:47:01 AM 36.7358 -78.3469 32° Northeast 448 516 27,900 1,017 Climbing Washington Center
Fri 10:47:59 AM 36.8419 -78.2625 32° Northeast 448 516 29,000 559 Climbing Washington Center
Fri 10:48:59 AM 36.9567 -78.1728 32° Northeast 448 516 29,000  Level Washington Center
Fri 10:50:00 AM 37.0500 -78.1006 33° Northeast 440 506 29,000  Level Washington Center
Fri 10:51:00 AM 37.1517 -78.0178 32° Northeast 440 506 29,000  Level Washington Center
Fri 10:51:58 AM 37.2556 -77.9350 32° Northeast 440 506 29,000  Level Washington Center
Fri 10:52:59 AM 37.3594 -77.8519 33° Northeast 440 506 29,000  Level Washington Center
Fri 10:54:00 AM 37.4611 -77.7686 32° Northeast 440 506 29,000  Level Washington Center
Fri 10:55:59 AM 37.6706 -77.6014 33° Northeast 440 506 29,000  Level Washington Center
Fri 10:57:00 AM 37.7742 -77.5150 32° Northeast 445 512 29,000  Level Washington Center
Fri 10:58:01 AM 37.8797 -77.4308 33° Northeast 445 512 29,000  Level Washington Center
Fri 10:59:01 AM 37.9811 -77.3464 33° Northeast 445 512 29,000  Level Washington Center
Fri 10:59:59 AM 38.0972 -77.2514 34° Northeast 445 512 29,000  Level Washington Center
Fri 11:01:00 AM 38.1794 -77.1819 33° Northeast 445 512 29,000  Level Washington Center
Fri 11:02:01 AM 38.3058 -77.0786 32° Northeast 445 512 29,000  Level Washington Center
Fri 11:02:59 AM 38.4111 -76.9933 34° Northeast 445 512 29,000 -353 Level Washington Center
Fri 11:04:00 AM 38.5142 -76.9050 33° Northeast 445 512 28,300 -1,426 Descending Washington Center
Fri 11:05:01 AM 38.6131 -76.8219 37° Northeast 440 506 26,100 -2,132 Descending Washington Center
Fri 11:06:01 AM 38.7058 -76.7328 72° East 435 501 24,000 -1,050 Descending Washington Center
Fri 11:07:01 AM 38.7403 -76.5950 75° East 399 459 24,000 -1,068 Level Washington Center
Fri 11:07:59 AM 38.7686 -76.4542 75° East 390 449 21,900 -2,118 Descending Washington Center
Fri 11:09:00 AM 38.7964 -76.3189 75° East 390 449 19,800 -2,033 Descending Washington Center
Fri 11:10:00 AM 38.8242 -76.1886 77° East 390 449 17,800 -2,083 Descending Washington Center
Fri 11:11:01 AM 38.8456 -76.0661 75° East 390 449 15,600 -1,462 Descending Washington Center
Fri 11:11:59 AM 38.8711 -75.9408 69° East 372 428 14,900 -756 Descending Washington Center
Fri 11:13:00 AM 38.9047 -75.8264 35° Northeast 357 411 14,100 -893 Descending Washington Center
Fri 11:14:00 AM 38.9842 -75.7544 23° Northeast 331 381 13,100 -1,013 Descending Washington Center
Fri 11:15:40 AM 39.1344 -75.6703 North 349 402 11,400 -1,029 Descending FAA TRACON SMA TRACON (SMA)
Fri 11:16:20 AM 39.2003 -75.6617 North 341 392 10,700 -1,050 Descending FAA TRACON SMA TRACON (SMA)
Fri 11:17:00 AM 39.2631 -75.6550 North 323 372 10,000 -525 Descending FAA TRACON SMA TRACON (SMA)
Fri 11:17:40 AM 39.3142 -75.6486 27° Northeast 302 348 10,000 -525 Level FAA TRACON SMA TRACON (SMA)
Fri 11:18:20 AM 39.3628 -75.6172 48° Northeast 292 336 9,300 -1,350 Descending FAA TRACON SMA TRACON (SMA)
Fri 11:19:00 AM 39.4006 -75.5636 46° Northeast 295 339 8,200 -1,500 Descending FAA TRACON SMA TRACON (SMA)
Fri 11:19:40 AM 39.4361 -75.5164 46° Northeast 293 337 7,300 -1,275 Descending FAA TRACON SMA TRACON (SMA)
Fri 11:20:20 AM 39.4744 -75.4653 46° Northeast 287 330 6,500 -975 Descending FAA TRACON SMA TRACON (SMA)
Fri 11:21:00 AM 39.5111 -75.4153 46° Northeast 279 321 6,000 -975 Descending FAA TRACON SMA TRACON (SMA)
Fri 11:21:40 AM 39.5439 -75.3714 46° Northeast 277 319 5,200 -1,350 Descending FAA TRACON SMA TRACON (SMA)
Fri 11:22:20 AM 39.5811 -75.3222 37° Northeast 277 319 4,200 -1,275 Descending FAA TRACON SMA TRACON (SMA)
Fri 11:23:00 AM 39.6231 -75.2811 25° Northeast 285 328 3,500 -900 Descending FAA TRACON SMA TRACON (SMA)
Fri 11:23:40 AM 39.6636 -75.2564 25° Northeast 261 300 3,000 -900 Descending FAA TRACON SMA TRACON (SMA)
Fri 11:24:20 AM 39.7061 -75.2306 26° Northeast 253 291 2,300 -750 Descending FAA TRACON SMA TRACON (SMA)
Fri 11:25:00 AM 39.7478 -75.2036 26° Northeast 228 262 2,000 -450 Descending FAA TRACON SMA TRACON (SMA)

Login

Don't have an account? Register now (free) for customized features, flight alerts, and more!